sensor_id;sensor_type;location;lat;lon;timestamp;temperature;humidity
4757;DHT22;2392;52.578;13.426;2023-04-24T00:01:06;12.70;99.90
4757;DHT22;2392;52.578;13.426;2023-04-24T00:03:34;12.70;99.90
4757;DHT22;2392;52.578;13.426;2023-04-24T00:06:02;12.70;99.90
4757;DHT22;2392;52.578;13.426;2023-04-24T00:08:29;12.70;99.90
4757;DHT22;2392;52.578;13.426;2023-04-24T00:10:56;12.70;99.90
4757;DHT22;2392;52.578;13.426;2023-04-24T00:13:23;12.70;99.90
4757;DHT22;2392;52.578;13.426;2023-04-24T00:15:50;12.70;99.90
4757;DHT22;2392;52.578;13.426;2023-04-24T00:18:18;12.60;99.90
4757;DHT22;2392;52.578;13.426;2023-04-24T00:20:45;12.60;99.90
4757;DHT22;2392;52.578;13.426;2023-04-24T00:23:13;12.60;99.90
4757;DHT22;2392;52.578;13.426;2023-04-24T00:25:40;12.60;99.90
4757;DHT22;2392;52.578;13.426;2023-04-24T00:28:07;12.50;99.90
4757;DHT22;2392;52.578;13.426;2023-04-24T00:30:34;12.50;99.90
4757;DHT22;2392;52.578;13.426;2023-04-24T00:33:01;12.50;99.90
4757;DHT22;2392;52.578;13.426;2023-04-24T00:35:29;12.50;99.90
4757;DHT22;2392;52.578;13.426;2023-04-24T00:37:56;12.50;99.90
4757;DHT22;2392;52.578;13.426;2023-04-24T00:40:23;12.50;99.90
4757;DHT22;2392;52.578;13.426;2023-04-24T00:42:50;12.50;99.90
4757;DHT22;2392;52.578;13.426;2023-04-24T00:45:17;12.40;99.90
4757;DHT22;2392;52.578;13.426;2023-04-24T00:47:45;12.50;99.90
4757;DHT22;2392;52.578;13.426;2023-04-24T00:50:14;12.40;99.90
4757;DHT22;2392;52.578;13.426;2023-04-24T00:52:43;12.40;99.90
4757;DHT22;2392;52.578;13.426;2023-04-24T00:55:10;12.40;99.90
4757;DHT22;2392;52.578;13.426;2023-04-24T00:57:37;12.40;99.90
4757;DHT22;2392;52.578;13.426;2023-04-24T01:00:05;12.40;99.90
4757;DHT22;2392;52.578;13.426;2023-04-24T01:02:38;12.30;99.90
4757;DHT22;2392;52.578;13.426;2023-04-24T01:05:10;12.30;99.90
4757;DHT22;2392;52.578;13.426;2023-04-24T01:07:38;12.30;99.90
4757;DHT22;2392;52.578;13.426;2023-04-24T01:10:07;12.30;99.90
4757;DHT22;2392;52.578;13.426;2023-04-24T01:12:35;12.30;99.90
4757;DHT22;2392;52.578;13.426;2023-04-24T01:15:03;12.30;99.90
4757;DHT22;2392;52.578;13.426;2023-04-24T01:17:30;12.30;99.90
4757;DHT22;2392;52.578;13.426;2023-04-24T01:19:58;12.30;99.90
4757;DHT22;2392;52.578;13.426;2023-04-24T01:22:27;12.20;99.90
4757;DHT22;2392;52.578;13.426;2023-04-24T01:24:53;12.20;99.90
4757;DHT22;2392;52.578;13.426;2023-04-24T01:27:21;12.20;99.90
4757;DHT22;2392;52.578;13.426;2023-04-24T01:29:48;12.20;99.90
4757;DHT22;2392;52.578;13.426;2023-04-24T01:32:17;12.20;99.90
4757;DHT22;2392;52.578;13.426;2023-04-24T01:34:45;12.20;99.90
4757;DHT22;2392;52.578;13.426;2023-04-24T01:37:13;12.20;99.90
4757;DHT22;2392;52.578;13.426;2023-04-24T01:39:41;12.20;99.90
4757;DHT22;2392;52.578;13.426;2023-04-24T01:42:08;12.30;99.90
4757;DHT22;2392;52.578;13.426;2023-04-24T01:44:35;12.30;99.90
4757;DHT22;2392;52.578;13.426;2023-04-24T01:47:03;12.30;99.90
4757;DHT22;2392;52.578;13.426;2023-04-24T01:49:30;12.30;99.90
4757;DHT22;2392;52.578;13.426;2023-04-24T01:51:58;12.40;99.90
4757;DHT22;2392;52.578;13.426;2023-04-24T01:54:25;12.40;99.90
4757;DHT22;2392;52.578;13.426;2023-04-24T01:56:53;12.40;99.90
4757;DHT22;2392;52.578;13.426;2023-04-24T01:59:20;12.50;99.90
4757;DHT22;2392;52.578;13.426;2023-04-24T02:01:48;12.40;99.90
4757;DHT22;2392;52.578;13.426;2023-04-24T02:04:18;12.50;99.90
4757;DHT22;2392;52.578;13.426;2023-04-24T02:06:47;12.50;99.90
4757;DHT22;2392;52.578;13.426;2023-04-24T02:09:14;12.50;99.90
4757;DHT22;2392;52.578;13.426;2023-04-24T02:11:41;12.50;99.90
4757;DHT22;2392;52.578;13.426;2023-04-24T02:14:09;12.50;99.90
4757;DHT22;2392;52.578;13.426;2023-04-24T02:16:39;12.50;99.90
4757;DHT22;2392;52.578;13.426;2023-04-24T02:19:06;12.50;99.90
4757;DHT22;2392;52.578;13.426;2023-04-24T02:21:33;12.50;99.90
4757;DHT22;2392;52.578;13.426;2023-04-24T02:24:00;12.40;99.90
4757;DHT22;2392;52.578;13.426;2023-04-24T02:26:27;12.40;99.90
4757;DHT22;2392;52.578;13.426;2023-04-24T02:28:56;12.50;99.90
4757;DHT22;2392;52.578;13.426;2023-04-24T02:31:25;12.50;99.90
4757;DHT22;2392;52.578;13.426;2023-04-24T02:33:51;12.50;99.90
4757;DHT22;2392;52.578;13.426;2023-04-24T02:36:18;12.50;99.90
4757;DHT22;2392;52.578;13.426;2023-04-24T02:38:47;12.50;99.90
4757;DHT22;2392;52.578;13.426;2023-04-24T02:41:14;12.40;99.90
4757;DHT22;2392;52.578;13.426;2023-04-24T02:43:42;12.50;99.90
4757;DHT22;2392;52.578;13.426;2023-04-24T02:46:09;12.50;99.90
4757;DHT22;2392;52.578;13.426;2023-04-24T02:48:37;12.50;99.90
4757;DHT22;2392;52.578;13.426;2023-04-24T02:51:05;12.50;99.90
4757;DHT22;2392;52.578;13.426;2023-04-24T02:53:33;12.50;99.90
4757;DHT22;2392;52.578;13.426;2023-04-24T02:56:00;12.50;99.90
4757;DHT22;2392;52.578;13.426;2023-04-24T02:58:27;12.50;99.90
4757;DHT22;2392;52.578;13.426;2023-04-24T03:00:54;12.50;99.90
4757;DHT22;2392;52.578;13.426;2023-04-24T03:03:22;12.50;99.90
4757;DHT22;2392;52.578;13.426;2023-04-24T03:05:50;12.50;99.90
4757;DHT22;2392;52.578;13.426;2023-04-24T03:08:18;12.50;99.90
4757;DHT22;2392;52.578;13.426;2023-04-24T03:10:45;12.50;99.90
4757;DHT22;2392;52.578;13.426;2023-04-24T03:13:15;12.50;99.90
4757;DHT22;2392;52.578;13.426;2023-04-24T03:15:43;12.60;99.90
4757;DHT22;2392;52.578;13.426;2023-04-24T03:18:10;12.60;99.90
4757;DHT22;2392;52.578;13.426;2023-04-24T03:20:37;12.60;99.90
4757;DHT22;2392;52.578;13.426;2023-04-24T03:23:06;12.50;99.90
4757;DHT22;2392;52.578;13.426;2023-04-24T03:25:33;12.50;99.90
4757;DHT22;2392;52.578;13.426;2023-04-24T03:28:00;12.60;99.90
4757;DHT22;2392;52.578;13.426;2023-04-24T03:30:38;12.50;99.90
4757;DHT22;2392;52.578;13.426;2023-04-24T03:33:06;12.60;99.90
4757;DHT22;2392;52.578;13.426;2023-04-24T03:35:36;12.60;99.90
4757;DHT22;2392;52.578;13.426;2023-04-24T03:38:09;12.60;99.90
4757;DHT22;2392;52.578;13.426;2023-04-24T03:40:55;12.60;99.90
4757;DHT22;2392;52.578;13.426;2023-04-24T03:43:55;12.70;99.90
4757;DHT22;2392;52.578;13.426;2023-04-24T03:46:22;12.70;99.90
4757;DHT22;2392;52.578;13.426;2023-04-24T03:48:58;12.70;99.90
4757;DHT22;2392;52.578;13.426;2023-04-24T03:51:29;12.70;99.90
4757;DHT22;2392;52.578;13.426;2023-04-24T03:54:05;12.70;99.90
4757;DHT22;2392;52.578;13.426;2023-04-24T03:56:36;12.70;99.90
4757;DHT22;2392;52.578;13.426;2023-04-24T03:59:03;12.70;99.90
4757;DHT22;2392;52.578;13.426;2023-04-24T04:01:30;12.70;99.90
4757;DHT22;2392;52.578;13.426;2023-04-24T04:04:01;12.70;99.90
4757;DHT22;2392;52.578;13.426;2023-04-24T04:06:29;12.70;99.90
4757;DHT22;2392;52.578;13.426;2023-04-24T04:08:59;12.70;99.90
4757;DHT22;2392;52.578;13.426;2023-04-24T04:11:27;12.70;99.90
4757;DHT22;2392;52.578;13.426;2023-04-24T04:13:55;12.70;99.90
4757;DHT22;2392;52.578;13.426;2023-04-24T04:16:22;12.70;99.90
4757;DHT22;2392;52.578;13.426;2023-04-24T04:18:54;12.70;99.90
4757;DHT22;2392;52.578;13.426;2023-04-24T04:21:21;12.70;99.90
4757;DHT22;2392;52.578;13.426;2023-04-24T04:23:53;12.80;99.90
4757;DHT22;2392;52.578;13.426;2023-04-24T04:26:28;12.80;99.90
4757;DHT22;2392;52.578;13.426;2023-04-24T04:29:02;12.80;99.90
4757;DHT22;2392;52.578;13.426;2023-04-24T04:31:30;12.80;99.90
4757;DHT22;2392;52.578;13.426;2023-04-24T04:34:01;12.80;99.90
4757;DHT22;2392;52.578;13.426;2023-04-24T04:36:30;12.70;99.90
4757;DHT22;2392;52.578;13.426;2023-04-24T04:39:07;12.80;99.90
4757;DHT22;2392;52.578;13.426;2023-04-24T04:42:01;12.80;99.90
4757;DHT22;2392;52.578;13.426;2023-04-24T04:44:36;12.70;99.90
4757;DHT22;2392;52.578;13.426;2023-04-24T04:47:05;12.80;99.90
4757;DHT22;2392;52.578;13.426;2023-04-24T04:49:36;12.80;99.90
4757;DHT22;2392;52.578;13.426;2023-04-24T04:52:06;12.80;99.90
4757;DHT22;2392;52.578;13.426;2023-04-24T04:54:33;12.80;99.90
4757;DHT22;2392;52.578;13.426;2023-04-24T04:57:02;12.80;99.90
4757;DHT22;2392;52.578;13.426;2023-04-24T04:59:31;12.80;99.90
4757;DHT22;2392;52.578;13.426;2023-04-24T05:02:04;12.80;99.90
4757;DHT22;2392;52.578;13.426;2023-04-24T05:04:31;12.80;99.90
4757;DHT22;2392;52.578;13.426;2023-04-24T05:06:58;12.80;99.90
4757;DHT22;2392;52.578;13.426;2023-04-24T05:09:28;12.90;99.90
4757;DHT22;2392;52.578;13.426;2023-04-24T05:12:02;12.90;99.90
4757;DHT22;2392;52.578;13.426;2023-04-24T05:14:34;12.90;99.90
4757;DHT22;2392;52.578;13.426;2023-04-24T05:17:01;12.90;99.90
4757;DHT22;2392;52.578;13.426;2023-04-24T05:19:29;12.90;99.90
4757;DHT22;2392;52.578;13.426;2023-04-24T05:21:58;12.90;99.90
4757;DHT22;2392;52.578;13.426;2023-04-24T05:24:29;12.90;99.90
4757;DHT22;2392;52.578;13.426;2023-04-24T05:27:30;12.90;99.90
4757;DHT22;2392;52.578;13.426;2023-04-24T05:29:58;12.90;99.90
4757;DHT22;2392;52.578;13.426;2023-04-24T05:32:25;12.90;99.90
4757;DHT22;2392;52.578;13.426;2023-04-24T05:34:54;12.90;99.90
4757;DHT22;2392;52.578;13.426;2023-04-24T05:37:21;13.00;99.90
4757;DHT22;2392;52.578;13.426;2023-04-24T05:39:48;13.00;99.90
4757;DHT22;2392;52.578;13.426;2023-04-24T05:42:15;13.00;99.90
4757;DHT22;2392;52.578;13.426;2023-04-24T05:44:43;13.00;99.90
4757;DHT22;2392;52.578;13.426;2023-04-24T05:47:10;13.00;99.90
4757;DHT22;2392;52.578;13.426;2023-04-24T05:49:37;13.00;99.90
4757;DHT22;2392;52.578;13.426;2023-04-24T05:52:06;13.10;99.90
4757;DHT22;2392;52.578;13.426;2023-04-24T05:54:35;13.10;99.90
4757;DHT22;2392;52.578;13.426;2023-04-24T05:57:05;13.10;99.90
4757;DHT22;2392;52.578;13.426;2023-04-24T05:59:49;13.10;99.90
4757;DHT22;2392;52.578;13.426;2023-04-24T06:02:17;13.10;99.90
4757;DHT22;2392;52.578;13.426;2023-04-24T06:04:45;13.20;99.90
4757;DHT22;2392;52.578;13.426;2023-04-24T06:07:12;13.20;99.90
4757;DHT22;2392;52.578;13.426;2023-04-24T06:09:41;13.20;99.90
4757;DHT22;2392;52.578;13.426;2023-04-24T06:12:08;13.20;99.90
4757;DHT22;2392;52.578;13.426;2023-04-24T06:14:50;13.20;99.90
4757;DHT22;2392;52.578;13.426;2023-04-24T06:17:21;13.30;99.90
4757;DHT22;2392;52.578;13.426;2023-04-24T06:19:49;13.30;99.90
4757;DHT22;2392;52.578;13.426;2023-04-24T06:22:17;13.30;99.90
4757;DHT22;2392;52.578;13.426;2023-04-24T06:24:44;13.30;99.90
4757;DHT22;2392;52.578;13.426;2023-04-24T06:27:12;13.40;99.90
4757;DHT22;2392;52.578;13.426;2023-04-24T06:29:40;13.40;99.90
4757;DHT22;2392;52.578;13.426;2023-04-24T06:32:09;13.40;99.90
4757;DHT22;2392;52.578;13.426;2023-04-24T06:34:35;13.50;99.90
4757;DHT22;2392;52.578;13.426;2023-04-24T06:37:02;13.50;99.90
4757;DHT22;2392;52.578;13.426;2023-04-24T06:39:29;13.60;99.90
4757;DHT22;2392;52.578;13.426;2023-04-24T06:41:56;13.70;99.90
4757;DHT22;2392;52.578;13.426;2023-04-24T06:44:23;13.80;99.90
4757;DHT22;2392;52.578;13.426;2023-04-24T06:46:50;13.80;99.90
4757;DHT22;2392;52.578;13.426;2023-04-24T06:49:19;14.00;99.90
4757;DHT22;2392;52.578;13.426;2023-04-24T06:51:45;14.10;99.90
4757;DHT22;2392;52.578;13.426;2023-04-24T06:54:12;14.10;99.90
4757;DHT22;2392;52.578;13.426;2023-04-24T06:56:39;14.20;99.90
4757;DHT22;2392;52.578;13.426;2023-04-24T06:59:06;14.30;99.90
4757;DHT22;2392;52.578;13.426;2023-04-24T07:01:33;14.40;99.90
4757;DHT22;2392;52.578;13.426;2023-04-24T07:04:00;14.50;99.90
4757;DHT22;2392;52.578;13.426;2023-04-24T07:06:29;14.60;99.90
4757;DHT22;2392;52.578;13.426;2023-04-24T07:08:56;14.60;99.90
4757;DHT22;2392;52.578;13.426;2023-04-24T07:11:23;14.60;99.90
4757;DHT22;2392;52.578;13.426;2023-04-24T07:13:54;14.70;99.90
4757;DHT22;2392;52.578;13.426;2023-04-24T07:16:21;14.80;99.90
4757;DHT22;2392;52.578;13.426;2023-04-24T07:18:48;14.80;99.90
4757;DHT22;2392;52.578;13.426;2023-04-24T07:21:15;14.90;99.90
4757;DHT22;2392;52.578;13.426;2023-04-24T07:23:44;14.90;99.90
4757;DHT22;2392;52.578;13.426;2023-04-24T07:26:11;15.00;99.90
4757;DHT22;2392;52.578;13.426;2023-04-24T07:28:38;15.10;99.90
4757;DHT22;2392;52.578;13.426;2023-04-24T07:31:05;15.10;99.90
4757;DHT22;2392;52.578;13.426;2023-04-24T07:33:32;15.10;99.90
4757;DHT22;2392;52.578;13.426;2023-04-24T07:35:59;15.10;99.90
4757;DHT22;2392;52.578;13.426;2023-04-24T07:38:26;15.20;99.90
4757;DHT22;2392;52.578;13.426;2023-04-24T07:40:54;15.30;99.90
4757;DHT22;2392;52.578;13.426;2023-04-24T07:43:22;15.40;99.90
4757;DHT22;2392;52.578;13.426;2023-04-24T07:45:49;15.50;99.90
4757;DHT22;2392;52.578;13.426;2023-04-24T07:48:16;15.50;99.90
4757;DHT22;2392;52.578;13.426;2023-04-24T07:50:43;15.60;99.90
4757;DHT22;2392;52.578;13.426;2023-04-24T07:53:11;15.60;99.90
4757;DHT22;2392;52.578;13.426;2023-04-24T07:55:38;15.60;99.90
4757;DHT22;2392;52.578;13.426;2023-04-24T07:58:06;15.70;99.90
4757;DHT22;2392;52.578;13.426;2023-04-24T08:00:33;15.80;99.90
4757;DHT22;2392;52.578;13.426;2023-04-24T08:03:00;15.80;99.90
4757;DHT22;2392;52.578;13.426;2023-04-24T08:05:27;15.80;99.90
4757;DHT22;2392;52.578;13.426;2023-04-24T08:07:54;15.90;99.90
4757;DHT22;2392;52.578;13.426;2023-04-24T08:10:22;15.90;99.90
4757;DHT22;2392;52.578;13.426;2023-04-24T08:12:49;16.00;99.90
4757;DHT22;2392;52.578;13.426;2023-04-24T08:15:18;16.00;99.90
4757;DHT22;2392;52.578;13.426;2023-04-24T08:17:45;16.10;99.90
4757;DHT22;2392;52.578;13.426;2023-04-24T08:20:12;16.20;99.90
4757;DHT22;2392;52.578;13.426;2023-04-24T08:22:40;16.30;99.90
4757;DHT22;2392;52.578;13.426;2023-04-24T08:25:08;16.40;99.90
4757;DHT22;2392;52.578;13.426;2023-04-24T08:27:35;16.50;99.90
4757;DHT22;2392;52.578;13.426;2023-04-24T08:30:05;16.60;99.90
4757;DHT22;2392;52.578;13.426;2023-04-24T08:32:33;16.70;99.90
4757;DHT22;2392;52.578;13.426;2023-04-24T08:35:00;16.70;99.90
4757;DHT22;2392;52.578;13.426;2023-04-24T08:37:27;16.60;99.90
4757;DHT22;2392;52.578;13.426;2023-04-24T08:39:54;16.60;99.90
4757;DHT22;2392;52.578;13.426;2023-04-24T08:42:22;16.70;99.90
4757;DHT22;2392;52.578;13.426;2023-04-24T08:44:50;16.70;99.90
4757;DHT22;2392;52.578;13.426;2023-04-24T08:47:18;16.80;99.90
4757;DHT22;2392;52.578;13.426;2023-04-24T08:49:48;16.90;99.90
4757;DHT22;2392;52.578;13.426;2023-04-24T08:52:15;17.00;99.90
4757;DHT22;2392;52.578;13.426;2023-04-24T08:54:45;17.10;99.90
4757;DHT22;2392;52.578;13.426;2023-04-24T08:57:14;17.10;99.90
4757;DHT22;2392;52.578;13.426;2023-04-24T08:59:42;17.30;99.90
4757;DHT22;2392;52.578;13.426;2023-04-24T09:02:10;17.40;99.90
4757;DHT22;2392;52.578;13.426;2023-04-24T09:04:38;17.50;99.90
4757;DHT22;2392;52.578;13.426;2023-04-24T09:07:06;17.50;99.90
4757;DHT22;2392;52.578;13.426;2023-04-24T09:09:38;17.60;99.90
4757;DHT22;2392;52.578;13.426;2023-04-24T09:12:06;17.60;99.90
4757;DHT22;2392;52.578;13.426;2023-04-24T09:14:36;17.70;99.90
4757;DHT22;2392;52.578;13.426;2023-04-24T09:17:06;17.90;99.90
4757;DHT22;2392;52.578;13.426;2023-04-24T09:19:33;17.80;99.90
4757;DHT22;2392;52.578;13.426;2023-04-24T09:22:06;17.90;99.90
4757;DHT22;2392;52.578;13.426;2023-04-24T09:24:34;17.80;99.90
4757;DHT22;2392;52.578;13.426;2023-04-24T09:27:04;17.70;99.90
4757;DHT22;2392;52.578;13.426;2023-04-24T09:29:31;17.40;99.90
4757;DHT22;2392;52.578;13.426;2023-04-24T09:31:58;17.20;99.90
4757;DHT22;2392;52.578;13.426;2023-04-24T09:34:26;17.20;99.90
4757;DHT22;2392;52.578;13.426;2023-04-24T09:36:54;17.00;99.90
4757;DHT22;2392;52.578;13.426;2023-04-24T09:39:22;17.00;99.90
4757;DHT22;2392;52.578;13.426;2023-04-24T09:41:50;17.00;99.90
4757;DHT22;2392;52.578;13.426;2023-04-24T09:44:19;17.00;99.90
4757;DHT22;2392;52.578;13.426;2023-04-24T09:46:49;16.90;99.90
4757;DHT22;2392;52.578;13.426;2023-04-24T09:49:22;17.00;99.90
4757;DHT22;2392;52.578;13.426;2023-04-24T09:51:53;17.10;99.90
4757;DHT22;2392;52.578;13.426;2023-04-24T09:54:30;17.10;99.90
4757;DHT22;2392;52.578;13.426;2023-04-24T09:57:02;17.10;99.90
4757;DHT22;2392;52.578;13.426;2023-04-24T09:59:30;17.00;99.90
4757;DHT22;2392;52.578;13.426;2023-04-24T10:01:57;17.00;99.90
4757;DHT22;2392;52.578;13.426;2023-04-24T10:04:27;17.00;99.90
4757;DHT22;2392;52.578;13.426;2023-04-24T10:06:56;17.10;99.90
4757;DHT22;2392;52.578;13.426;2023-04-24T10:09:25;17.20;99.90
4757;DHT22;2392;52.578;13.426;2023-04-24T10:11:54;17.50;99.90
4757;DHT22;2392;52.578;13.426;2023-04-24T10:14:23;17.70;99.90
4757;DHT22;2392;52.578;13.426;2023-04-24T10:16:53;18.10;99.90
4757;DHT22;2392;52.578;13.426;2023-04-24T10:19:20;18.50;99.90
4757;DHT22;2392;52.578;13.426;2023-04-24T10:21:48;19.40;99.90
4757;DHT22;2392;52.578;13.426;2023-04-24T10:24:18;20.40;99.90
4757;DHT22;2392;52.578;13.426;2023-04-24T10:26:46;20.80;99.90
4757;DHT22;2392;52.578;13.426;2023-04-24T10:29:18;20.80;99.90
4757;DHT22;2392;52.578;13.426;2023-04-24T10:31:47;20.90;99.90
4757;DHT22;2392;52.578;13.426;2023-04-24T10:34:15;20.70;99.90
4757;DHT22;2392;52.578;13.426;2023-04-24T10:36:46;21.10;99.90
4757;DHT22;2392;52.578;13.426;2023-04-24T10:39:14;21.20;99.90
4757;DHT22;2392;52.578;13.426;2023-04-24T10:41:43;20.80;99.90
4757;DHT22;2392;52.578;13.426;2023-04-24T10:44:11;20.50;99.90
4757;DHT22;2392;52.578;13.426;2023-04-24T10:46:45;19.80;99.90
4757;DHT22;2392;52.578;13.426;2023-04-24T10:49:13;19.20;99.90
4757;DHT22;2392;52.578;13.426;2023-04-24T10:51:47;18.70;99.90
4757;DHT22;2392;52.578;13.426;2023-04-24T10:54:25;18.30;99.90
4757;DHT22;2392;52.578;13.426;2023-04-24T10:56:53;17.90;99.90
4757;DHT22;2392;52.578;13.426;2023-04-24T10:59:27;17.70;99.90
4757;DHT22;2392;52.578;13.426;2023-04-24T11:01:56;17.50;99.90
4757;DHT22;2392;52.578;13.426;2023-04-24T11:04:29;17.50;99.90
4757;DHT22;2392;52.578;13.426;2023-04-24T11:06:57;17.50;99.90
4757;DHT22;2392;52.578;13.426;2023-04-24T11:09:27;17.40;99.90
4757;DHT22;2392;52.578;13.426;2023-04-24T11:12:03;17.40;99.90
4757;DHT22;2392;52.578;13.426;2023-04-24T11:14:59;17.80;99.90
4757;DHT22;2392;52.578;13.426;2023-04-24T11:17:31;18.70;99.90
4757;DHT22;2392;52.578;13.426;2023-04-24T11:20:02;20.00;99.90
4757;DHT22;2392;52.578;13.426;2023-04-24T11:22:33;20.80;99.90
4757;DHT22;2392;52.578;13.426;2023-04-24T11:25:01;21.10;99.90
4757;DHT22;2392;52.578;13.426;2023-04-24T11:27:31;21.70;99.90
4757;DHT22;2392;52.578;13.426;2023-04-24T11:30:00;23.00;99.90
4757;DHT22;2392;52.578;13.426;2023-04-24T11:32:28;23.90;99.70
4757;DHT22;2392;52.578;13.426;2023-04-24T11:34:58;24.40;96.40
4757;DHT22;2392;52.578;13.426;2023-04-24T11:37:27;23.90;95.00
4757;DHT22;2392;52.578;13.426;2023-04-24T11:39:57;22.80;95.10
4757;DHT22;2392;52.578;13.426;2023-04-24T11:42:24;21.60;96.00
4757;DHT22;2392;52.578;13.426;2023-04-24T11:44:52;20.60;97.60
4757;DHT22;2392;52.578;13.426;2023-04-24T11:47:27;19.70;98.80
4757;DHT22;2392;52.578;13.426;2023-04-24T11:49:56;19.00;99.90
4757;DHT22;2392;52.578;13.426;2023-04-24T11:52:23;18.60;99.90
4757;DHT22;2392;52.578;13.426;2023-04-24T11:54:50;18.30;99.90
4757;DHT22;2392;52.578;13.426;2023-04-24T11:57:20;17.90;99.90
4757;DHT22;2392;52.578;13.426;2023-04-24T11:59:48;17.60;99.90
4757;DHT22;2392;52.578;13.426;2023-04-24T12:02:22;17.40;99.90
4757;DHT22;2392;52.578;13.426;2023-04-24T12:04:49;17.20;99.90
4757;DHT22;2392;52.578;13.426;2023-04-24T12:07:18;17.00;99.90
4757;DHT22;2392;52.578;13.426;2023-04-24T12:09:46;16.90;99.90
4757;DHT22;2392;52.578;13.426;2023-04-24T12:12:14;17.10;99.90
4757;DHT22;2392;52.578;13.426;2023-04-24T12:14:48;17.50;99.90
4757;DHT22;2392;52.578;13.426;2023-04-24T12:17:16;17.90;99.90
4757;DHT22;2392;52.578;13.426;2023-04-24T12:19:47;18.30;99.90
4757;DHT22;2392;52.578;13.426;2023-04-24T12:22:14;18.70;99.90
4757;DHT22;2392;52.578;13.426;2023-04-24T12:25:02;19.20;99.90
4757;DHT22;2392;52.578;13.426;2023-04-24T12:27:31;19.50;99.90
4757;DHT22;2392;52.578;13.426;2023-04-24T12:30:00;20.00;99.90
4757;DHT22;2392;52.578;13.426;2023-04-24T12:32:28;20.40;99.90
4757;DHT22;2392;52.578;13.426;2023-04-24T12:34:58;20.60;99.90
4757;DHT22;2392;52.578;13.426;2023-04-24T12:37:26;20.80;99.90
4757;DHT22;2392;52.578;13.426;2023-04-24T12:40:03;20.50;99.90
4757;DHT22;2392;52.578;13.426;2023-04-24T12:42:31;20.10;99.90
4757;DHT22;2392;52.578;13.426;2023-04-24T12:45:01;19.50;99.90
4757;DHT22;2392;52.578;13.426;2023-04-24T12:47:28;19.20;99.90
4757;DHT22;2392;52.578;13.426;2023-04-24T12:49:55;19.30;99.90
4757;DHT22;2392;52.578;13.426;2023-04-24T12:52:23;19.80;99.90
4757;DHT22;2392;52.578;13.426;2023-04-24T12:54:54;20.30;99.90
4757;DHT22;2392;52.578;13.426;2023-04-24T12:57:22;21.00;97.50
4757;DHT22;2392;52.578;13.426;2023-04-24T12:59:49;21.40;96.80
4757;DHT22;2392;52.578;13.426;2023-04-24T13:02:17;21.60;94.10
4757;DHT22;2392;52.578;13.426;2023-04-24T13:04:44;21.30;95.80
4757;DHT22;2392;52.578;13.426;2023-04-24T13:07:12;20.80;96.60
4757;DHT22;2392;52.578;13.426;2023-04-24T13:09:40;20.60;96.90
4757;DHT22;2392;52.578;13.426;2023-04-24T13:12:07;20.40;97.50
4757;DHT22;2392;52.578;13.426;2023-04-24T13:14:36;20.20;97.60
4757;DHT22;2392;52.578;13.426;2023-04-24T13:17:03;20.10;97.40
4757;DHT22;2392;52.578;13.426;2023-04-24T13:19:35;20.10;98.70
4757;DHT22;2392;52.578;13.426;2023-04-24T13:22:03;20.20;97.60
4757;DHT22;2392;52.578;13.426;2023-04-24T13:24:31;19.90;97.30
4757;DHT22;2392;52.578;13.426;2023-04-24T13:26:58;19.70;97.70
4757;DHT22;2392;52.578;13.426;2023-04-24T13:29:26;19.50;98.00
4757;DHT22;2392;52.578;13.426;2023-04-24T13:31:55;19.50;98.10
4757;DHT22;2392;52.578;13.426;2023-04-24T13:34:22;19.50;98.10
4757;DHT22;2392;52.578;13.426;2023-04-24T13:36:50;19.50;97.70
4757;DHT22;2392;52.578;13.426;2023-04-24T13:39:21;19.20;98.60
4757;DHT22;2392;52.578;13.426;2023-04-24T13:41:48;19.00;99.10
4757;DHT22;2392;52.578;13.426;2023-04-24T13:44:16;18.90;99.50
4757;DHT22;2392;52.578;13.426;2023-04-24T13:46:45;18.60;99.90
4757;DHT22;2392;52.578;13.426;2023-04-24T13:49:14;18.60;99.90
4757;DHT22;2392;52.578;13.426;2023-04-24T13:51:42;18.90;99.10
4757;DHT22;2392;52.578;13.426;2023-04-24T13:54:09;18.90;99.10
4757;DHT22;2392;52.578;13.426;2023-04-24T13:56:37;19.00;98.20
4757;DHT22;2392;52.578;13.426;2023-04-24T13:59:04;19.00;98.60
4757;DHT22;2392;52.578;13.426;2023-04-24T14:01:31;18.90;97.50
4757;DHT22;2392;52.578;13.426;2023-04-24T14:03:58;19.10;97.00
4757;DHT22;2392;52.578;13.426;2023-04-24T14:06:27;19.30;95.70
4757;DHT22;2392;52.578;13.426;2023-04-24T14:08:54;19.10;95.60
4757;DHT22;2392;52.578;13.426;2023-04-24T14:11:21;19.00;96.20
4757;DHT22;2392;52.578;13.426;2023-04-24T14:13:48;19.10;95.60
4757;DHT22;2392;52.578;13.426;2023-04-24T14:16:15;19.10;95.40
4757;DHT22;2392;52.578;13.426;2023-04-24T14:18:42;19.00;96.10
4757;DHT22;2392;52.578;13.426;2023-04-24T14:21:09;19.00;95.50
4757;DHT22;2392;52.578;13.426;2023-04-24T14:23:38;19.00;95.80
4757;DHT22;2392;52.578;13.426;2023-04-24T14:26:05;18.90;95.10
4757;DHT22;2392;52.578;13.426;2023-04-24T14:28:32;18.90;94.60
4757;DHT22;2392;52.578;13.426;2023-04-24T14:31:00;18.90;94.00
4757;DHT22;2392;52.578;13.426;2023-04-24T14:33:27;19.00;93.80
4757;DHT22;2392;52.578;13.426;2023-04-24T14:35:54;19.00;94.10
4757;DHT22;2392;52.578;13.426;2023-04-24T14:38:22;19.10;93.80
4757;DHT22;2392;52.578;13.426;2023-04-24T14:40:50;19.40;91.90
4757;DHT22;2392;52.578;13.426;2023-04-24T14:43:17;19.90;90.70
4757;DHT22;2392;52.578;13.426;2023-04-24T14:45:44;20.20;92.00
4757;DHT22;2392;52.578;13.426;2023-04-24T14:48:11;20.30;89.70
4757;DHT22;2392;52.578;13.426;2023-04-24T14:50:38;20.10;87.70
4757;DHT22;2392;52.578;13.426;2023-04-24T14:53:05;20.10;89.30
4757;DHT22;2392;52.578;13.426;2023-04-24T14:55:32;20.20;86.70
4757;DHT22;2392;52.578;13.426;2023-04-24T14:58:03;20.20;87.90
4757;DHT22;2392;52.578;13.426;2023-04-24T15:00:30;20.00;87.00
4757;DHT22;2392;52.578;13.426;2023-04-24T15:03:00;19.80;85.70
4757;DHT22;2392;52.578;13.426;2023-04-24T15:05:28;19.70;85.30
4757;DHT22;2392;52.578;13.426;2023-04-24T15:07:55;19.50;85.00
4757;DHT22;2392;52.578;13.426;2023-04-24T15:10:23;19.30;85.90
4757;DHT22;2392;52.578;13.426;2023-04-24T15:12:53;18.80;85.60
4757;DHT22;2392;52.578;13.426;2023-04-24T15:15:21;18.60;86.20
4757;DHT22;2392;52.578;13.426;2023-04-24T15:17:48;18.40;86.70
4757;DHT22;2392;52.578;13.426;2023-04-24T15:20:15;18.40;87.60
4757;DHT22;2392;52.578;13.426;2023-04-24T15:22:43;18.20;87.50
4757;DHT22;2392;52.578;13.426;2023-04-24T15:25:10;18.00;87.40
4757;DHT22;2392;52.578;13.426;2023-04-24T15:27:41;17.80;88.00
4757;DHT22;2392;52.578;13.426;2023-04-24T15:30:10;17.60;88.10
4757;DHT22;2392;52.578;13.426;2023-04-24T15:32:38;17.50;89.20
4757;DHT22;2392;52.578;13.426;2023-04-24T15:35:06;17.40;89.40
4757;DHT22;2392;52.578;13.426;2023-04-24T15:37:33;17.40;89.40
4757;DHT22;2392;52.578;13.426;2023-04-24T15:40:00;17.40;88.00
4757;DHT22;2392;52.578;13.426;2023-04-24T15:42:29;17.20;87.20
4757;DHT22;2392;52.578;13.426;2023-04-24T15:44:56;17.10;88.00
4757;DHT22;2392;52.578;13.426;2023-04-24T15:47:24;17.00;88.80
4757;DHT22;2392;52.578;13.426;2023-04-24T15:49:53;17.00;89.20
4757;DHT22;2392;52.578;13.426;2023-04-24T15:52:20;16.90;89.60
4757;DHT22;2392;52.578;13.426;2023-04-24T15:54:48;16.80;90.00